• Join FlightAware (Why Join?)
  • Login
  • US Flag 
08:05AM EDT


 

Airport Tracker/Info


-or-


 

Live Flight TrackerFlight Track Log ✈ SWA896 ✈ 18-Apr-2013 ✈ KLAS - KSMF

Flight Track Log - Related Links

Times and Time Zones

All times are in EDT time to prevent confusion due to time zone crossing. See the SWA896 flight status page for this flight to view local times or setup timezone preferences in your user account.

Time Position Orientation Groundspeed Altitude Reporting Facility
EDT Latitude Longitude Course Direction KTS MPH feet Rate Location/Type
01:56PM 36.0775 -115.1144 92° East 170 196 3,300  Level Los Angeles Center
01:57PM 36.0758 -115.0486 92° East 217 250 4,900 2,160 Climbing Los Angeles Center
01:58PM 36.0703 -114.9636 95° East 249 287 7,400 2,340 Climbing Los Angeles Center
01:59PM 36.0150 -114.9242 150° Southeast 291 335 9,600 2,760 Climbing Los Angeles Center
02:00PM 35.9256 -114.9522 194° South 311 358 13,200 2,520 Climbing Los Angeles Center
02:01PM 35.9233 -115.0631 269° West 324 373 14,900 1,980 Climbing Los Angeles Center
02:02PM 35.9178 -115.1889 267° West 355 409 17,300 2,220 Climbing Los Angeles Center
02:03PM 35.9150 -115.3242 269° West 381 438 19,500 2,220 Climbing Los Angeles Center
02:04PM 35.9117 -115.4628 268° West 397 457 22,000 2,340 Climbing Los Angeles Center
02:05PM 35.9061 -115.6300 268° West 402 463 24,400 1,860 Climbing Los Angeles Center
02:06PM 35.9019 -115.7744 268° West 413 475 26,000 1,260 Climbing Los Angeles Center
02:07PM 35.8978 -115.9097 268° West 431 496 27,100 1,320 Climbing Los Angeles Center
02:08PM 35.9511 -116.0344 298° West 423 487 28,700 1,620 Climbing Los Angeles Center
02:09PM 36.0325 -116.1267 318° Northwest 420 483 30,500 1,920 Climbing Los Angeles Center
02:10PM 36.1378 -116.2475 317° Northwest 414 476 32,700 1,680 Climbing Los Angeles Center
02:11PM 36.2197 -116.3433 317° Northwest 408 470 34,000 600 Climbing Los Angeles Center
02:12PM 36.3031 -116.4400 317° Northwest 410 472 34,000  Level Los Angeles Center
02:13PM 36.3853 -116.5353 317° Northwest 408 470 34,000  Level Los Angeles Center
02:14PM 36.4661 -116.6308 316° Northwest 405 466 34,000  Level Los Angeles Center
02:15PM 36.5628 -116.7436 317° Northwest 405 466 34,000  Level Los Angeles Center
02:17PM 36.6783 -116.8336 328° Northwest 407 468 34,000  Level Los Angeles Center
02:18PM 36.7750 -116.9072 329° Northwest 405 466 34,000  Level Los Angeles Center
02:19PM 36.8892 -116.9958 328° Northwest 404 465 34,000  Level Los Angeles Center
02:20PM 37.0039 -117.0872 328° Northwest 406 467 34,000  Level Los Angeles Center
02:21PM 37.0983 -117.1569 330° Northwest 401 461 34,000  Level Oakland Center
02:22PM 37.1939 -117.2306 328° Northwest 401 461 34,000  Level Oakland Center
02:23PM 37.2872 -117.3036 328° Northwest 396 456 34,000  Level Oakland Center
02:24PM 37.3572 -117.4108 309° West 402 463 34,000  Level Oakland Center
02:25PM 37.3861 -117.5531 284° West 414 476 34,000  Level Oakland Center
02:26PM 37.4094 -117.6969 282° West 416 479 34,000  Level Oakland Center
02:27PM 37.4319 -117.8394 281° West 415 478 34,000  Level Oakland Center
02:28PM 37.4589 -118.0114 281° West 414 476 34,000  Level Oakland Center
02:29PM 37.4811 -118.1556 281° West 417 480 34,000  Level Oakland Center
02:30PM 37.5039 -118.3008 281° West 421 484 34,000  Level Oakland Center
02:31PM 37.5264 -118.4456 281° West 420 483 34,000  Level Oakland Center
02:32PM 37.5467 -118.5886 280° West 415 478 34,000 -120 Level Oakland Center
02:33PM 37.5686 -118.7331 281° West 418 481 33,800 -720 Descending Oakland Center
02:34PM 37.5917 -118.8875 281° West 410 472 32,600 -1,080 Descending Oakland Center
02:35PM 37.6108 -119.0178 281° West 403 464 31,600 -1,020 Descending Oakland Center
02:36PM 37.6308 -119.1525 281° West 393 452 30,600 -840 Descending Oakland Center
02:37PM 37.6500 -119.2856 280° West 387 445 30,000 -660 Descending Oakland Center
02:38PM 37.6694 -119.4203 280° West 388 447 29,300 -960 Descending Oakland Center
02:39PM 37.6936 -119.5867 280° West 400 460 28,100 -1,080 Descending Oakland Center
02:40PM 37.7136 -119.7219 281° West 394 453 27,100 -1,020 Descending Oakland Center
02:41PM 37.7322 -119.8556 280° West 388 447 26,100 -1,020 Descending Oakland Center
02:42PM 37.7508 -119.9875 280° West 386 444 25,100 -1,020 Descending Oakland Center
02:43PM 37.7692 -120.1172 280° West 377 434 24,100 -1,020 Descending Oakland Center
02:44PM 37.7881 -120.2475 280° West 377 434 23,100 -1,020 Descending Oakland Center
02:45PM 37.8039 -120.3781 279° West 375 432 22,100 -1,080 Descending Oakland Center
02:47PM 37.8225 -120.5042 281° West 369 425 21,000 -1,080 Descending Oakland Center
02:48PM 37.8675 -120.6139 297° West 357 411 20,000 -1,080 Descending Oakland Center
02:49PM 37.9217 -120.7144 304° West 347 399 18,900 -1,560 Descending Oakland Center
02:50PM 37.9844 -120.8306 304° West 334 384 16,900 -1,920 Descending Oakland Center
02:51PM 38.0339 -120.9253 304° West 325 374 15,000 -1,860 Descending Oakland Center
02:52PM 38.0853 -121.0186 305° West 322 371 13,100 -1,800 Descending Oakland Center
02:53PM 38.1414 -121.1014 311° West 311 358 11,400 -1,560 Descending Oakland Center
02:54PM 38.2000 -121.1833 312° West 297 342 10,100 -1,140 Descending Northern Cal TRACON
02:55PM 38.2500 -121.2500 314° West 272 313 9,300 -900 Descending Northern Cal TRACON
02:56PM 38.2833 -121.3167 303° West 262 302 8,300 -1,200 Descending Northern Cal TRACON
02:57PM 38.3333 -121.3833 314° West 257 296 7,000 -1,260 Descending Northern Cal TRACON
02:58PM 38.3833 -121.4500 314° West 252 290 5,800 -1,200 Descending Northern Cal TRACON
02:59PM 38.4333 -121.5167 314° West 249 287 4,600 -960 Descending Northern Cal TRACON
03:00PM 38.4833 -121.5833 314° West 232 267 3,900 -840 Descending Northern Cal TRACON
03:01PM 38.5333 -121.6000 345° North 212 244 3,000 -1,020 Descending Northern Cal TRACON
03:02PM 38.5833 -121.6000 360° North 194 223 1,900 -1,020 Descending Northern Cal TRACON
03:03PM 38.6333 -121.6000 360° North 156 180 1,000 -900 Descending Northern Cal TRACON
03:04PM 38.6667 -121.6000 360° North 142 163 200 -840 Descending Northern Cal TRACON
03:06PM 38.6833 -121.5833 46° Northeast  Level FlightAware Approximate
03:13PM 38.6954 -121.5908 46° Northeast  Level Estimated
03:14PM 38.6954 -121.5908 46° Northeast  Level Estimated